sensor_id;sensor_type;location;lat;lon;timestamp;temperature;humidity
12907;DHT22;6521;50.498;8.474;2023-12-20T00:00:47;5.07;95.50
12907;DHT22;6521;50.498;8.474;2023-12-20T00:03:18;5.08;95.50
12907;DHT22;6521;50.498;8.474;2023-12-20T00:05:50;5.04;95.58
12907;DHT22;6521;50.498;8.474;2023-12-20T00:08:21;5.05;95.49
12907;DHT22;6521;50.498;8.474;2023-12-20T00:10:51;5.08;95.58
12907;DHT22;6521;50.498;8.474;2023-12-20T00:13:22;5.07;95.48
12907;DHT22;6521;50.498;8.474;2023-12-20T00:15:53;5.08;95.53
12907;DHT22;6521;50.498;8.474;2023-12-20T00:18:24;5.09;95.46
12907;DHT22;6521;50.498;8.474;2023-12-20T00:20:55;5.07;95.45
12907;DHT22;6521;50.498;8.474;2023-12-20T00:23:26;5.08;95.47
12907;DHT22;6521;50.498;8.474;2023-12-20T00:25:57;5.07;95.55
12907;DHT22;6521;50.498;8.474;2023-12-20T00:28:27;5.07;95.51
12907;DHT22;6521;50.498;8.474;2023-12-20T00:30:58;5.09;95.44
12907;DHT22;6521;50.498;8.474;2023-12-20T00:33:29;5.08;95.43
12907;DHT22;6521;50.498;8.474;2023-12-20T00:36:00;5.07;95.48
12907;DHT22;6521;50.498;8.474;2023-12-20T00:38:32;5.07;95.46
12907;DHT22;6521;50.498;8.474;2023-12-20T00:41:03;5.11;95.46
12907;DHT22;6521;50.498;8.474;2023-12-20T00:43:34;5.11;95.49
12907;DHT22;6521;50.498;8.474;2023-12-20T00:46:05;5.07;95.37
12907;DHT22;6521;50.498;8.474;2023-12-20T00:48:36;5.07;95.53
12907;DHT22;6521;50.498;8.474;2023-12-20T00:51:07;5.12;95.54
12907;DHT22;6521;50.498;8.474;2023-12-20T00:53:38;5.08;95.52
12907;DHT22;6521;50.498;8.474;2023-12-20T00:56:09;5.05;95.57
12907;DHT22;6521;50.498;8.474;2023-12-20T00:58:40;5.05;95.65
12907;DHT22;6521;50.498;8.474;2023-12-20T01:01:11;5.08;95.61
12907;DHT22;6521;50.498;8.474;2023-12-20T01:03:42;5.01;95.62
12907;DHT22;6521;50.498;8.474;2023-12-20T01:06:13;4.99;95.77
12907;DHT22;6521;50.498;8.474;2023-12-20T01:08:43;5.01;95.78
12907;DHT22;6521;50.498;8.474;2023-12-20T01:11:15;5.02;95.77
12907;DHT22;6521;50.498;8.474;2023-12-20T01:13:46;5.01;95.75
12907;DHT22;6521;50.498;8.474;2023-12-20T01:16:17;4.97;95.78
12907;DHT22;6521;50.498;8.474;2023-12-20T01:18:47;5.04;95.81
12907;DHT22;6521;50.498;8.474;2023-12-20T01:21:18;4.98;95.83
12907;DHT22;6521;50.498;8.474;2023-12-20T01:23:49;4.95;95.87
12907;DHT22;6521;50.498;8.474;2023-12-20T01:26:22;4.92;96.02
12907;DHT22;6521;50.498;8.474;2023-12-20T01:28:53;4.94;96.05
12907;DHT22;6521;50.498;8.474;2023-12-20T01:31:24;4.97;96.08
12907;DHT22;6521;50.498;8.474;2023-12-20T01:33:54;4.98;96.02
12907;DHT22;6521;50.498;8.474;2023-12-20T01:36:25;5.02;96.12
12907;DHT22;6521;50.498;8.474;2023-12-20T01:38:56;5.07;96.04
12907;DHT22;6521;50.498;8.474;2023-12-20T01:41:27;5.04;95.98
12907;DHT22;6521;50.498;8.474;2023-12-20T01:43:57;5.09;95.92
12907;DHT22;6521;50.498;8.474;2023-12-20T01:46:29;5.09;95.93
12907;DHT22;6521;50.498;8.474;2023-12-20T01:49:00;5.12;95.84
12907;DHT22;6521;50.498;8.474;2023-12-20T01:51:32;5.14;95.65
12907;DHT22;6521;50.498;8.474;2023-12-20T01:54:03;5.08;95.74
12907;DHT22;6521;50.498;8.474;2023-12-20T01:56:35;5.09;95.79
12907;DHT22;6521;50.498;8.474;2023-12-20T01:59:06;5.05;95.82
12907;DHT22;6521;50.498;8.474;2023-12-20T02:01:38;5.09;95.86
12907;DHT22;6521;50.498;8.474;2023-12-20T02:04:09;5.05;95.88
12907;DHT22;6521;50.498;8.474;2023-12-20T02:06:40;5.05;95.94
12907;DHT22;6521;50.498;8.474;2023-12-20T02:09:11;5.08;95.87
12907;DHT22;6521;50.498;8.474;2023-12-20T02:11:42;5.07;95.92
12907;DHT22;6521;50.498;8.474;2023-12-20T02:14:14;5.12;96.04
12907;DHT22;6521;50.498;8.474;2023-12-20T02:16:45;5.18;95.85
12907;DHT22;6521;50.498;8.474;2023-12-20T02:19:17;5.12;95.84
12907;DHT22;6521;50.498;8.474;2023-12-20T02:21:48;5.14;95.89
12907;DHT22;6521;50.498;8.474;2023-12-20T02:24:19;5.14;95.87
12907;DHT22;6521;50.498;8.474;2023-12-20T02:26:50;5.14;95.86
12907;DHT22;6521;50.498;8.474;2023-12-20T02:29:21;5.11;95.94
12907;DHT22;6521;50.498;8.474;2023-12-20T02:31:52;5.15;95.87
12907;DHT22;6521;50.498;8.474;2023-12-20T02:34:23;5.14;95.86
12907;DHT22;6521;50.498;8.474;2023-12-20T02:36:54;5.18;95.86
12907;DHT22;6521;50.498;8.474;2023-12-20T02:39:25;5.15;95.87
12907;DHT22;6521;50.498;8.474;2023-12-20T02:41:56;5.16;95.90
12907;DHT22;6521;50.498;8.474;2023-12-20T02:44:26;5.15;95.94
12907;DHT22;6521;50.498;8.474;2023-12-20T02:46:57;5.21;95.91
12907;DHT22;6521;50.498;8.474;2023-12-20T02:49:28;5.15;95.96
12907;DHT22;6521;50.498;8.474;2023-12-20T02:51:59;5.21;96.01
12907;DHT22;6521;50.498;8.474;2023-12-20T02:54:30;5.21;95.94
12907;DHT22;6521;50.498;8.474;2023-12-20T02:57:00;5.21;95.97
12907;DHT22;6521;50.498;8.474;2023-12-20T02:59:31;5.22;96.03
12907;DHT22;6521;50.498;8.474;2023-12-20T03:02:02;5.24;96.04
12907;DHT22;6521;50.498;8.474;2023-12-20T03:04:33;5.29;95.90
12907;DHT22;6521;50.498;8.474;2023-12-20T03:07:04;5.29;95.99
12907;DHT22;6521;50.498;8.474;2023-12-20T03:09:34;5.32;95.92
12907;DHT22;6521;50.498;8.474;2023-12-20T03:12:05;5.31;95.91
12907;DHT22;6521;50.498;8.474;2023-12-20T03:14:36;5.29;95.98
12907;DHT22;6521;50.498;8.474;2023-12-20T03:17:07;5.35;95.80
12907;DHT22;6521;50.498;8.474;2023-12-20T03:19:37;5.26;95.67
12907;DHT22;6521;50.498;8.474;2023-12-20T03:22:08;5.18;95.61
12907;DHT22;6521;50.498;8.474;2023-12-20T03:24:39;5.16;95.72
12907;DHT22;6521;50.498;8.474;2023-12-20T03:27:10;5.15;95.75
12907;DHT22;6521;50.498;8.474;2023-12-20T03:29:41;5.14;95.74
12907;DHT22;6521;50.498;8.474;2023-12-20T03:32:11;5.12;95.68
12907;DHT22;6521;50.498;8.474;2023-12-20T03:34:42;5.08;95.75
12907;DHT22;6521;50.498;8.474;2023-12-20T03:37:13;5.09;95.75
12907;DHT22;6521;50.498;8.474;2023-12-20T03:39:44;5.04;95.75
12907;DHT22;6521;50.498;8.474;2023-12-20T03:42:15;4.99;95.74
12907;DHT22;6521;50.498;8.474;2023-12-20T03:44:46;5.01;95.77
12907;DHT22;6521;50.498;8.474;2023-12-20T03:47:17;4.98;95.69
12907;DHT22;6521;50.498;8.474;2023-12-20T03:49:48;4.99;95.73
12907;DHT22;6521;50.498;8.474;2023-12-20T03:52:18;4.98;95.66
12907;DHT22;6521;50.498;8.474;2023-12-20T03:54:49;4.95;95.57
12907;DHT22;6521;50.498;8.474;2023-12-20T03:57:20;4.95;95.58
12907;DHT22;6521;50.498;8.474;2023-12-20T03:59:51;4.89;95.53
12907;DHT22;6521;50.498;8.474;2023-12-20T04:02:22;4.83;95.42
12907;DHT22;6521;50.498;8.474;2023-12-20T04:04:53;4.78;95.44
12907;DHT22;6521;50.498;8.474;2023-12-20T04:07:23;4.83;95.42
12907;DHT22;6521;50.498;8.474;2023-12-20T04:09:54;4.81;95.25
12907;DHT22;6521;50.498;8.474;2023-12-20T04:12:26;4.77;95.15
12907;DHT22;6521;50.498;8.474;2023-12-20T04:14:57;4.76;95.11
12907;DHT22;6521;50.498;8.474;2023-12-20T04:17:30;4.74;95.11
12907;DHT22;6521;50.498;8.474;2023-12-20T04:20:01;4.77;94.92
12907;DHT22;6521;50.498;8.474;2023-12-20T04:22:33;4.71;94.88
12907;DHT22;6521;50.498;8.474;2023-12-20T04:25:04;4.74;94.75
12907;DHT22;6521;50.498;8.474;2023-12-20T04:27:35;4.74;94.61
12907;DHT22;6521;50.498;8.474;2023-12-20T04:30:06;4.71;94.35
12907;DHT22;6521;50.498;8.474;2023-12-20T04:32:38;4.71;94.44
12907;DHT22;6521;50.498;8.474;2023-12-20T04:35:09;4.71;94.32
12907;DHT22;6521;50.498;8.474;2023-12-20T04:37:39;4.71;94.31
12907;DHT22;6521;50.498;8.474;2023-12-20T04:40:10;4.66;94.37
12907;DHT22;6521;50.498;8.474;2023-12-20T04:42:42;4.71;94.54
12907;DHT22;6521;50.498;8.474;2023-12-20T04:45:13;4.67;94.53
12907;DHT22;6521;50.498;8.474;2023-12-20T04:47:46;4.68;94.56
12907;DHT22;6521;50.498;8.474;2023-12-20T04:50:17;4.68;94.09
12907;DHT22;6521;50.498;8.474;2023-12-20T04:52:48;4.67;93.04
12907;DHT22;6521;50.498;8.474;2023-12-20T04:55:19;4.58;92.54
12907;DHT22;6521;50.498;8.474;2023-12-20T04:57:50;4.53;92.37
12907;DHT22;6521;50.498;8.474;2023-12-20T05:00:21;4.53;92.06
12907;DHT22;6521;50.498;8.474;2023-12-20T05:02:51;4.52;91.34
12907;DHT22;6521;50.498;8.474;2023-12-20T05:05:22;4.52;91.43
12907;DHT22;6521;50.498;8.474;2023-12-20T05:07:54;4.52;91.03
12907;DHT22;6521;50.498;8.474;2023-12-20T05:10:25;4.54;90.87
12907;DHT22;6521;50.498;8.474;2023-12-20T05:12:56;4.56;90.38
12907;DHT22;6521;50.498;8.474;2023-12-20T05:15:28;4.56;90.08
12907;DHT22;6521;50.498;8.474;2023-12-20T05:17:58;4.46;90.05
12907;DHT22;6521;50.498;8.474;2023-12-20T05:20:29;4.32;90.27
12907;DHT22;6521;50.498;8.474;2023-12-20T05:23:00;4.32;90.23
12907;DHT22;6521;50.498;8.474;2023-12-20T05:25:30;4.26;90.48
12907;DHT22;6521;50.498;8.474;2023-12-20T05:28:01;4.16;90.82
12907;DHT22;6521;50.498;8.474;2023-12-20T05:30:32;4.19;90.92
12907;DHT22;6521;50.498;8.474;2023-12-20T05:33:03;4.22;91.12
12907;DHT22;6521;50.498;8.474;2023-12-20T05:35:34;4.19;91.29
12907;DHT22;6521;50.498;8.474;2023-12-20T05:38:05;4.28;91.49
12907;DHT22;6521;50.498;8.474;2023-12-20T05:40:36;4.28;91.54
12907;DHT22;6521;50.498;8.474;2023-12-20T05:43:07;4.28;91.52
12907;DHT22;6521;50.498;8.474;2023-12-20T05:45:38;4.26;91.57
12907;DHT22;6521;50.498;8.474;2023-12-20T05:48:09;4.23;91.79
12907;DHT22;6521;50.498;8.474;2023-12-20T05:50:39;4.22;91.95
12907;DHT22;6521;50.498;8.474;2023-12-20T05:53:11;4.25;92.00
12907;DHT22;6521;50.498;8.474;2023-12-20T05:55:42;4.25;92.18
12907;DHT22;6521;50.498;8.474;2023-12-20T05:58:12;4.22;92.31
12907;DHT22;6521;50.498;8.474;2023-12-20T06:00:43;4.22;92.47
12907;DHT22;6521;50.498;8.474;2023-12-20T06:03:14;4.20;92.65
12907;DHT22;6521;50.498;8.474;2023-12-20T06:05:45;4.19;92.52
12907;DHT22;6521;50.498;8.474;2023-12-20T06:08:16;4.25;92.35
12907;DHT22;6521;50.498;8.474;2023-12-20T06:10:47;4.18;92.45
12907;DHT22;6521;50.498;8.474;2023-12-20T06:13:18;4.12;92.46
12907;DHT22;6521;50.498;8.474;2023-12-20T06:15:49;4.12;92.53
12907;DHT22;6521;50.498;8.474;2023-12-20T06:18:19;4.09;92.74
12907;DHT22;6521;50.498;8.474;2023-12-20T06:20:50;4.15;92.76
12907;DHT22;6521;50.498;8.474;2023-12-20T06:23:21;4.18;92.58
12907;DHT22;6521;50.498;8.474;2023-12-20T06:25:52;4.15;92.58
12907;DHT22;6521;50.498;8.474;2023-12-20T06:28:22;4.10;92.94
12907;DHT22;6521;50.498;8.474;2023-12-20T06:30:53;4.09;93.20
12907;DHT22;6521;50.498;8.474;2023-12-20T06:33:26;4.13;93.31
12907;DHT22;6521;50.498;8.474;2023-12-20T06:35:57;4.18;93.25
12907;DHT22;6521;50.498;8.474;2023-12-20T06:38:28;4.16;93.30
12907;DHT22;6521;50.498;8.474;2023-12-20T06:40:58;4.12;93.30
12907;DHT22;6521;50.498;8.474;2023-12-20T06:43:30;4.10;93.43
12907;DHT22;6521;50.498;8.474;2023-12-20T06:46:01;4.10;93.51
12907;DHT22;6521;50.498;8.474;2023-12-20T06:48:32;4.10;93.54
12907;DHT22;6521;50.498;8.474;2023-12-20T06:51:03;4.13;93.58
12907;DHT22;6521;50.498;8.474;2023-12-20T06:53:34;4.19;93.42
12907;DHT22;6521;50.498;8.474;2023-12-20T06:56:05;4.22;93.18
12907;DHT22;6521;50.498;8.474;2023-12-20T06:58:37;4.18;93.21
12907;DHT22;6521;50.498;8.474;2023-12-20T07:01:13;4.23;93.39
12907;DHT22;6521;50.498;8.474;2023-12-20T07:03:44;4.22;93.42
12907;DHT22;6521;50.498;8.474;2023-12-20T07:06:15;4.18;93.59
12907;DHT22;6521;50.498;8.474;2023-12-20T07:08:47;4.16;93.60
12907;DHT22;6521;50.498;8.474;2023-12-20T07:11:18;4.16;93.34
12907;DHT22;6521;50.498;8.474;2023-12-20T07:13:49;4.18;93.46
12907;DHT22;6521;50.498;8.474;2023-12-20T07:16:21;4.15;93.48
12907;DHT22;6521;50.498;8.474;2023-12-20T07:18:51;4.18;93.61
12907;DHT22;6521;50.498;8.474;2023-12-20T07:21:23;4.26;93.60
12907;DHT22;6521;50.498;8.474;2023-12-20T07:23:54;4.19;93.76
12907;DHT22;6521;50.498;8.474;2023-12-20T07:26:25;4.22;93.83
12907;DHT22;6521;50.498;8.474;2023-12-20T07:28:56;4.16;93.86
12907;DHT22;6521;50.498;8.474;2023-12-20T07:31:27;4.20;94.03
12907;DHT22;6521;50.498;8.474;2023-12-20T07:33:58;4.22;94.02
12907;DHT22;6521;50.498;8.474;2023-12-20T07:36:28;4.23;93.91
12907;DHT22;6521;50.498;8.474;2023-12-20T07:38:59;4.25;93.84
12907;DHT22;6521;50.498;8.474;2023-12-20T07:41:30;4.25;93.61
12907;DHT22;6521;50.498;8.474;2023-12-20T07:44:01;4.29;93.60
12907;DHT22;6521;50.498;8.474;2023-12-20T07:46:32;4.25;93.47
12907;DHT22;6521;50.498;8.474;2023-12-20T07:49:05;4.29;93.51
12907;DHT22;6521;50.498;8.474;2023-12-20T07:51:36;4.33;93.30
12907;DHT22;6521;50.498;8.474;2023-12-20T07:54:09;4.25;93.22
12907;DHT22;6521;50.498;8.474;2023-12-20T07:56:40;4.29;93.23
12907;DHT22;6521;50.498;8.474;2023-12-20T07:59:11;4.26;93.34
12907;DHT22;6521;50.498;8.474;2023-12-20T08:01:42;4.28;93.33
12907;DHT22;6521;50.498;8.474;2023-12-20T08:04:13;4.29;93.36
12907;DHT22;6521;50.498;8.474;2023-12-20T08:06:44;4.28;93.37
12907;DHT22;6521;50.498;8.474;2023-12-20T08:09:15;4.30;93.23
12907;DHT22;6521;50.498;8.474;2023-12-20T08:11:46;4.28;93.13
12907;DHT22;6521;50.498;8.474;2023-12-20T08:14:17;4.28;93.18
12907;DHT22;6521;50.498;8.474;2023-12-20T08:16:48;4.32;93.19
12907;DHT22;6521;50.498;8.474;2023-12-20T08:19:19;4.29;93.25
12907;DHT22;6521;50.498;8.474;2023-12-20T08:21:50;4.30;93.53
12907;DHT22;6521;50.498;8.474;2023-12-20T08:24:21;4.29;93.22
12907;DHT22;6521;50.498;8.474;2023-12-20T08:26:52;4.35;93.27
12907;DHT22;6521;50.498;8.474;2023-12-20T08:29:23;4.40;93.15
12907;DHT22;6521;50.498;8.474;2023-12-20T08:31:55;4.43;93.08
12907;DHT22;6521;50.498;8.474;2023-12-20T08:34:25;4.36;93.04
12907;DHT22;6521;50.498;8.474;2023-12-20T08:36:56;4.37;93.37
12907;DHT22;6521;50.498;8.474;2023-12-20T08:39:27;4.37;93.38
12907;DHT22;6521;50.498;8.474;2023-12-20T08:41:58;4.45;93.30
12907;DHT22;6521;50.498;8.474;2023-12-20T08:44:29;4.49;93.29
12907;DHT22;6521;50.498;8.474;2023-12-20T08:47:00;4.49;93.23
12907;DHT22;6521;50.498;8.474;2023-12-20T08:49:31;4.50;93.04
12907;DHT22;6521;50.498;8.474;2023-12-20T08:52:02;4.50;92.93
12907;DHT22;6521;50.498;8.474;2023-12-20T08:54:32;4.49;93.05
12907;DHT22;6521;50.498;8.474;2023-12-20T08:57:03;4.53;92.81
12907;DHT22;6521;50.498;8.474;2023-12-20T08:59:36;4.54;92.69
12907;DHT22;6521;50.498;8.474;2023-12-20T09:02:07;4.57;92.63
12907;DHT22;6521;50.498;8.474;2023-12-20T09:04:38;4.61;92.55
12907;DHT22;6521;50.498;8.474;2023-12-20T09:07:22;4.61;92.65
12907;DHT22;6521;50.498;8.474;2023-12-20T09:09:53;4.64;92.62
12907;DHT22;6521;50.498;8.474;2023-12-20T09:12:25;4.64;92.24
12907;DHT22;6521;50.498;8.474;2023-12-20T09:14:56;4.63;92.35
12907;DHT22;6521;50.498;8.474;2023-12-20T09:17:27;4.66;92.39
12907;DHT22;6521;50.498;8.474;2023-12-20T09:19:57;4.73;92.23
12907;DHT22;6521;50.498;8.474;2023-12-20T09:22:30;4.67;92.14
12907;DHT22;6521;50.498;8.474;2023-12-20T09:25:01;4.70;91.78
12907;DHT22;6521;50.498;8.474;2023-12-20T09:27:35;4.74;91.87
12907;DHT22;6521;50.498;8.474;2023-12-20T09:30:07;4.77;91.90
12907;DHT22;6521;50.498;8.474;2023-12-20T09:32:38;4.77;91.95
12907;DHT22;6521;50.498;8.474;2023-12-20T09:35:09;4.77;91.56
12907;DHT22;6521;50.498;8.474;2023-12-20T09:37:40;4.78;91.61
12907;DHT22;6521;50.498;8.474;2023-12-20T09:40:14;4.74;91.79
12907;DHT22;6521;50.498;8.474;2023-12-20T09:43:02;4.77;91.69
12907;DHT22;6521;50.498;8.474;2023-12-20T09:45:33;4.80;91.66
12907;DHT22;6521;50.498;8.474;2023-12-20T09:48:05;4.81;91.52
12907;DHT22;6521;50.498;8.474;2023-12-20T09:50:36;4.87;91.66
12907;DHT22;6521;50.498;8.474;2023-12-20T09:53:13;4.89;91.25
12907;DHT22;6521;50.498;8.474;2023-12-20T09:55:45;4.91;91.33
12907;DHT22;6521;50.498;8.474;2023-12-20T09:58:16;4.92;91.31
12907;DHT22;6521;50.498;8.474;2023-12-20T10:00:47;4.91;91.21
12907;DHT22;6521;50.498;8.474;2023-12-20T10:03:24;4.94;90.85
12907;DHT22;6521;50.498;8.474;2023-12-20T10:05:57;4.98;90.74
12907;DHT22;6521;50.498;8.474;2023-12-20T10:08:28;4.95;90.78
12907;DHT22;6521;50.498;8.474;2023-12-20T10:11:00;4.98;90.71
12907;DHT22;6521;50.498;8.474;2023-12-20T10:13:33;5.01;90.33
12907;DHT22;6521;50.498;8.474;2023-12-20T10:16:05;5.02;90.44
12907;DHT22;6521;50.498;8.474;2023-12-20T10:18:36;5.05;90.41
12907;DHT22;6521;50.498;8.474;2023-12-20T10:21:07;5.07;90.55
12907;DHT22;6521;50.498;8.474;2023-12-20T10:23:40;5.15;89.96
12907;DHT22;6521;50.498;8.474;2023-12-20T10:26:22;5.18;90.13
12907;DHT22;6521;50.498;8.474;2023-12-20T10:28:55;5.24;89.62
12907;DHT22;6521;50.498;8.474;2023-12-20T10:31:30;5.28;89.41
12907;DHT22;6521;50.498;8.474;2023-12-20T10:34:02;5.31;89.09
12907;DHT22;6521;50.498;8.474;2023-12-20T10:36:33;5.31;89.40
12907;DHT22;6521;50.498;8.474;2023-12-20T10:39:07;5.35;89.18
12907;DHT22;6521;50.498;8.474;2023-12-20T10:41:40;5.36;88.91
12907;DHT22;6521;50.498;8.474;2023-12-20T10:44:12;5.42;89.03
12907;DHT22;6521;50.498;8.474;2023-12-20T10:46:44;5.49;88.99
12907;DHT22;6521;50.498;8.474;2023-12-20T10:49:20;5.57;88.19
12907;DHT22;6521;50.498;8.474;2023-12-20T10:51:54;5.77;87.78
12907;DHT22;6521;50.498;8.474;2023-12-20T10:54:25;5.80;87.57
12907;DHT22;6521;50.498;8.474;2023-12-20T10:56:57;5.76;86.90
12907;DHT22;6521;50.498;8.474;2023-12-20T10:59:29;5.73;87.46
12907;DHT22;6521;50.498;8.474;2023-12-20T11:02:04;5.69;87.52
12907;DHT22;6521;50.498;8.474;2023-12-20T11:04:50;5.69;87.42
12907;DHT22;6521;50.498;8.474;2023-12-20T11:07:39;5.64;88.21
12907;DHT22;6521;50.498;8.474;2023-12-20T11:10:31;5.56;87.84
12907;DHT22;6521;50.498;8.474;2023-12-20T11:13:12;5.55;87.10
12907;DHT22;6521;50.498;8.474;2023-12-20T11:15:46;5.55;87.12
12907;DHT22;6521;50.498;8.474;2023-12-20T11:18:17;5.55;87.26
12907;DHT22;6521;50.498;8.474;2023-12-20T11:20:48;5.52;87.35
12907;DHT22;6521;50.498;8.474;2023-12-20T11:23:19;5.50;87.43
12907;DHT22;6521;50.498;8.474;2023-12-20T11:25:54;5.50;87.93
12907;DHT22;6521;50.498;8.474;2023-12-20T11:28:26;5.47;88.09
12907;DHT22;6521;50.498;8.474;2023-12-20T11:30:58;5.47;88.19
12907;DHT22;6521;50.498;8.474;2023-12-20T11:33:35;5.52;88.40
12907;DHT22;6521;50.498;8.474;2023-12-20T11:36:13;5.47;88.69
12907;DHT22;6521;50.498;8.474;2023-12-20T11:38:57;5.42;88.05
12907;DHT22;6521;50.498;8.474;2023-12-20T11:41:28;5.47;88.20
12907;DHT22;6521;50.498;8.474;2023-12-20T11:43:59;5.47;88.41
12907;DHT22;6521;50.498;8.474;2023-12-20T11:46:31;5.50;88.38
12907;DHT22;6521;50.498;8.474;2023-12-20T11:49:02;5.46;88.22
12907;DHT22;6521;50.498;8.474;2023-12-20T11:51:33;5.49;88.16
12907;DHT22;6521;50.498;8.474;2023-12-20T11:54:04;5.50;88.20
12907;DHT22;6521;50.498;8.474;2023-12-20T11:56:36;5.46;88.25
12907;DHT22;6521;50.498;8.474;2023-12-20T11:59:08;5.50;88.38
12907;DHT22;6521;50.498;8.474;2023-12-20T12:01:39;5.52;88.39
12907;DHT22;6521;50.498;8.474;2023-12-20T12:04:10;5.50;88.69
12907;DHT22;6521;50.498;8.474;2023-12-20T12:06:41;5.49;88.85
12907;DHT22;6521;50.498;8.474;2023-12-20T12:09:11;5.50;89.19
12907;DHT22;6521;50.498;8.474;2023-12-20T12:11:43;5.53;89.08
12907;DHT22;6521;50.498;8.474;2023-12-20T12:14:14;5.57;89.09
12907;DHT22;6521;50.498;8.474;2023-12-20T12:16:46;5.55;89.25
12907;DHT22;6521;50.498;8.474;2023-12-20T12:19:21;5.52;89.15
12907;DHT22;6521;50.498;8.474;2023-12-20T12:22:05;5.53;89.43
12907;DHT22;6521;50.498;8.474;2023-12-20T12:24:47;5.50;89.32
12907;DHT22;6521;50.498;8.474;2023-12-20T12:27:17;5.49;89.27
12907;DHT22;6521;50.498;8.474;2023-12-20T12:30:02;5.46;89.47
12907;DHT22;6521;50.498;8.474;2023-12-20T12:32:34;5.45;89.54
12907;DHT22;6521;50.498;8.474;2023-12-20T12:35:05;5.49;90.06
12907;DHT22;6521;50.498;8.474;2023-12-20T12:37:41;5.55;89.89
12907;DHT22;6521;50.498;8.474;2023-12-20T12:40:13;5.55;90.01
12907;DHT22;6521;50.498;8.474;2023-12-20T12:42:45;5.60;89.94
12907;DHT22;6521;50.498;8.474;2023-12-20T12:45:16;5.64;90.16
12907;DHT22;6521;50.498;8.474;2023-12-20T12:47:47;5.63;89.94
12907;DHT22;6521;50.498;8.474;2023-12-20T12:50:18;5.63;89.53
12907;DHT22;6521;50.498;8.474;2023-12-20T12:52:53;5.55;89.58
12907;DHT22;6521;50.498;8.474;2023-12-20T12:55:24;5.46;89.33
12907;DHT22;6521;50.498;8.474;2023-12-20T12:57:54;5.42;89.68
12907;DHT22;6521;50.498;8.474;2023-12-20T13:00:25;5.34;89.98
12907;DHT22;6521;50.498;8.474;2023-12-20T13:02:56;5.34;89.73
12907;DHT22;6521;50.498;8.474;2023-12-20T13:05:27;5.29;90.17
12907;DHT22;6521;50.498;8.474;2023-12-20T13:07:58;5.28;90.11
12907;DHT22;6521;50.498;8.474;2023-12-20T13:10:29;5.24;89.88
12907;DHT22;6521;50.498;8.474;2023-12-20T13:13:00;5.22;89.86
12907;DHT22;6521;50.498;8.474;2023-12-20T13:15:31;5.18;89.71
12907;DHT22;6521;50.498;8.474;2023-12-20T13:18:02;5.16;89.96
12907;DHT22;6521;50.498;8.474;2023-12-20T13:20:33;5.18;90.11
12907;DHT22;6521;50.498;8.474;2023-12-20T13:23:04;5.21;90.08
12907;DHT22;6521;50.498;8.474;2023-12-20T13:25:35;5.19;90.31
12907;DHT22;6521;50.498;8.474;2023-12-20T13:28:06;5.19;90.12
12907;DHT22;6521;50.498;8.474;2023-12-20T13:30:37;5.12;90.64
12907;DHT22;6521;50.498;8.474;2023-12-20T13:33:08;5.15;90.69
12907;DHT22;6521;50.498;8.474;2023-12-20T13:35:39;5.19;90.76
12907;DHT22;6521;50.498;8.474;2023-12-20T13:38:12;5.16;90.53
12907;DHT22;6521;50.498;8.474;2023-12-20T13:40:43;5.16;90.80
12907;DHT22;6521;50.498;8.474;2023-12-20T13:43:14;5.19;90.92
12907;DHT22;6521;50.498;8.474;2023-12-20T13:45:48;5.19;90.97
12907;DHT22;6521;50.498;8.474;2023-12-20T13:48:18;5.16;91.17
12907;DHT22;6521;50.498;8.474;2023-12-20T13:50:49;5.14;90.94
12907;DHT22;6521;50.498;8.474;2023-12-20T13:53:20;5.18;91.20
12907;DHT22;6521;50.498;8.474;2023-12-20T13:55:51;5.16;91.10
12907;DHT22;6521;50.498;8.474;2023-12-20T13:58:22;5.25;91.04
12907;DHT22;6521;50.498;8.474;2023-12-20T14:00:53;5.25;90.85
12907;DHT22;6521;50.498;8.474;2023-12-20T14:03:23;5.21;91.00
12907;DHT22;6521;50.498;8.474;2023-12-20T14:05:54;5.31;90.47
12907;DHT22;6521;50.498;8.474;2023-12-20T14:08:25;5.32;90.33
12907;DHT22;6521;50.498;8.474;2023-12-20T14:10:57;5.28;90.31
12907;DHT22;6521;50.498;8.474;2023-12-20T14:13:28;5.35;90.15
12907;DHT22;6521;50.498;8.474;2023-12-20T14:15:59;5.34;90.02
12907;DHT22;6521;50.498;8.474;2023-12-20T14:18:31;5.32;89.97
12907;DHT22;6521;50.498;8.474;2023-12-20T14:21:02;5.31;90.21
12907;DHT22;6521;50.498;8.474;2023-12-20T14:23:33;5.35;90.12
12907;DHT22;6521;50.498;8.474;2023-12-20T14:26:04;5.34;90.01
12907;DHT22;6521;50.498;8.474;2023-12-20T14:28:35;5.36;90.03
12907;DHT22;6521;50.498;8.474;2023-12-20T14:31:06;5.38;90.24
12907;DHT22;6521;50.498;8.474;2023-12-20T14:33:36;5.40;90.31
12907;DHT22;6521;50.498;8.474;2023-12-20T14:36:09;5.36;90.34
12907;DHT22;6521;50.498;8.474;2023-12-20T14:38:39;5.39;90.31
12907;DHT22;6521;50.498;8.474;2023-12-20T14:41:11;5.39;90.48
12907;DHT22;6521;50.498;8.474;2023-12-20T14:43:42;5.42;90.24
12907;DHT22;6521;50.498;8.474;2023-12-20T14:46:13;5.39;90.22
12907;DHT22;6521;50.498;8.474;2023-12-20T14:48:44;5.40;89.99
12907;DHT22;6521;50.498;8.474;2023-12-20T14:51:15;5.39;89.91
12907;DHT22;6521;50.498;8.474;2023-12-20T14:53:46;5.38;90.09
12907;DHT22;6521;50.498;8.474;2023-12-20T14:56:17;5.39;90.09
12907;DHT22;6521;50.498;8.474;2023-12-20T14:58:48;5.45;89.97
12907;DHT22;6521;50.498;8.474;2023-12-20T15:01:19;5.43;89.89
12907;DHT22;6521;50.498;8.474;2023-12-20T15:03:54;5.46;89.60
12907;DHT22;6521;50.498;8.474;2023-12-20T15:06:26;5.45;89.23
12907;DHT22;6521;50.498;8.474;2023-12-20T15:08:57;5.46;89.20
12907;DHT22;6521;50.498;8.474;2023-12-20T15:11:28;5.50;89.18
12907;DHT22;6521;50.498;8.474;2023-12-20T15:13:59;5.52;89.07
12907;DHT22;6521;50.498;8.474;2023-12-20T15:16:31;5.49;89.10
12907;DHT22;6521;50.498;8.474;2023-12-20T15:19:02;5.49;89.02
12907;DHT22;6521;50.498;8.474;2023-12-20T15:21:34;5.49;89.19
12907;DHT22;6521;50.498;8.474;2023-12-20T15:24:11;5.52;89.35
12907;DHT22;6521;50.498;8.474;2023-12-20T15:26:50;5.50;89.27
12907;DHT22;6521;50.498;8.474;2023-12-20T15:29:21;5.47;89.39
12907;DHT22;6521;50.498;8.474;2023-12-20T15:31:52;5.52;89.03
12907;DHT22;6521;50.498;8.474;2023-12-20T15:34:23;5.47;89.39
12907;DHT22;6521;50.498;8.474;2023-12-20T15:36:54;5.43;89.86
12907;DHT22;6521;50.498;8.474;2023-12-20T15:39:24;5.42;90.14
12907;DHT22;6521;50.498;8.474;2023-12-20T15:41:55;5.40;90.37
12907;DHT22;6521;50.498;8.474;2023-12-20T15:44:26;5.39;90.34
12907;DHT22;6521;50.498;8.474;2023-12-20T15:46:57;5.36;90.68
12907;DHT22;6521;50.498;8.474;2023-12-20T15:49:28;5.35;90.92
12907;DHT22;6521;50.498;8.474;2023-12-20T15:51:59;5.31;91.24
12907;DHT22;6521;50.498;8.474;2023-12-20T15:54:30;5.22;91.53
12907;DHT22;6521;50.498;8.474;2023-12-20T15:57:01;5.26;91.49
12907;DHT22;6521;50.498;8.474;2023-12-20T15:59:32;5.28;91.50
12907;DHT22;6521;50.498;8.474;2023-12-20T16:02:03;5.21;91.56
12907;DHT22;6521;50.498;8.474;2023-12-20T16:04:34;5.26;91.59
12907;DHT22;6521;50.498;8.474;2023-12-20T16:07:06;5.31;91.15
12907;DHT22;6521;50.498;8.474;2023-12-20T16:09:37;5.29;91.12
12907;DHT22;6521;50.498;8.474;2023-12-20T16:12:09;5.28;91.14
12907;DHT22;6521;50.498;8.474;2023-12-20T16:14:40;5.29;91.12
12907;DHT22;6521;50.498;8.474;2023-12-20T16:17:11;5.34;91.13
12907;DHT22;6521;50.498;8.474;2023-12-20T16:19:43;5.31;91.13
12907;DHT22;6521;50.498;8.474;2023-12-20T16:22:14;5.28;91.18
12907;DHT22;6521;50.498;8.474;2023-12-20T16:24:45;5.28;91.35
12907;DHT22;6521;50.498;8.474;2023-12-20T16:27:16;5.26;91.50
12907;DHT22;6521;50.498;8.474;2023-12-20T16:29:47;5.28;91.78